sensor_id;sensor_type;location;lat;lon;timestamp;temperature;humidity
14252;DHT22;7210;51.502;10.722;2022-07-18T00:00:34;11.80;1.00
14252;DHT22;7210;51.502;10.722;2022-07-18T00:03:02;11.80;1.00
14252;DHT22;7210;51.502;10.722;2022-07-18T00:05:29;11.70;1.00
14252;DHT22;7210;51.502;10.722;2022-07-18T00:07:56;11.70;1.00
14252;DHT22;7210;51.502;10.722;2022-07-18T00:10:23;11.50;1.00
14252;DHT22;7210;51.502;10.722;2022-07-18T00:12:51;11.50;1.00
14252;DHT22;7210;51.502;10.722;2022-07-18T00:15:18;11.40;1.00
14252;DHT22;7210;51.502;10.722;2022-07-18T00:17:47;11.40;1.00
14252;DHT22;7210;51.502;10.722;2022-07-18T00:20:14;11.40;1.00
14252;DHT22;7210;51.502;10.722;2022-07-18T00:22:41;11.30;1.00
14252;DHT22;7210;51.502;10.722;2022-07-18T00:25:09;11.30;1.00
14252;DHT22;7210;51.502;10.722;2022-07-18T00:27:36;11.20;1.00
14252;DHT22;7210;51.502;10.722;2022-07-18T00:30:04;11.10;1.00
14252;DHT22;7210;51.502;10.722;2022-07-18T00:32:34;11.00;1.00
14252;DHT22;7210;51.502;10.722;2022-07-18T00:35:02;11.00;1.00
14252;DHT22;7210;51.502;10.722;2022-07-18T00:37:30;11.10;1.00
14252;DHT22;7210;51.502;10.722;2022-07-18T00:39:57;11.30;1.00
14252;DHT22;7210;51.502;10.722;2022-07-18T00:42:30;11.40;1.00
14252;DHT22;7210;51.502;10.722;2022-07-18T00:44:57;11.50;1.00
14252;DHT22;7210;51.502;10.722;2022-07-18T00:47:24;11.50;1.00
14252;DHT22;7210;51.502;10.722;2022-07-18T00:49:52;11.40;1.00
14252;DHT22;7210;51.502;10.722;2022-07-18T00:52:20;11.40;1.00
14252;DHT22;7210;51.502;10.722;2022-07-18T00:54:48;11.30;1.00
14252;DHT22;7210;51.502;10.722;2022-07-18T00:57:15;11.10;1.00
14252;DHT22;7210;51.502;10.722;2022-07-18T00:59:43;11.00;1.00
14252;DHT22;7210;51.502;10.722;2022-07-18T01:02:28;10.90;1.00
14252;DHT22;7210;51.502;10.722;2022-07-18T01:04:55;10.90;1.00
14252;DHT22;7210;51.502;10.722;2022-07-18T01:07:24;10.80;1.00
14252;DHT22;7210;51.502;10.722;2022-07-18T01:09:52;10.60;1.00
14252;DHT22;7210;51.502;10.722;2022-07-18T01:12:20;10.60;1.00
14252;DHT22;7210;51.502;10.722;2022-07-18T01:14:47;10.60;1.00
14252;DHT22;7210;51.502;10.722;2022-07-18T01:17:16;10.50;1.00
14252;DHT22;7210;51.502;10.722;2022-07-18T01:19:45;10.50;1.00
14252;DHT22;7210;51.502;10.722;2022-07-18T01:22:16;10.50;1.00
14252;DHT22;7210;51.502;10.722;2022-07-18T01:24:45;10.40;1.00
14252;DHT22;7210;51.502;10.722;2022-07-18T01:27:14;10.30;1.00
14252;DHT22;7210;51.502;10.722;2022-07-18T01:29:42;10.20;1.00
14252;DHT22;7210;51.502;10.722;2022-07-18T01:32:10;10.20;1.00
14252;DHT22;7210;51.502;10.722;2022-07-18T01:34:38;10.20;1.00
14252;DHT22;7210;51.502;10.722;2022-07-18T01:37:07;10.40;1.00
14252;DHT22;7210;51.502;10.722;2022-07-18T01:39:36;10.60;1.00
14252;DHT22;7210;51.502;10.722;2022-07-18T01:42:06;10.60;1.00
14252;DHT22;7210;51.502;10.722;2022-07-18T01:44:37;10.60;1.00
14252;DHT22;7210;51.502;10.722;2022-07-18T01:47:07;10.60;1.00
14252;DHT22;7210;51.502;10.722;2022-07-18T01:49:36;10.70;1.00
14252;DHT22;7210;51.502;10.722;2022-07-18T01:52:05;10.60;1.00
14252;DHT22;7210;51.502;10.722;2022-07-18T01:54:35;10.50;1.00
14252;DHT22;7210;51.502;10.722;2022-07-18T01:57:05;10.40;1.00
14252;DHT22;7210;51.502;10.722;2022-07-18T01:59:33;10.50;1.00
14252;DHT22;7210;51.502;10.722;2022-07-18T02:02:02;10.30;1.00
14252;DHT22;7210;51.502;10.722;2022-07-18T02:04:35;10.30;1.00
14252;DHT22;7210;51.502;10.722;2022-07-18T02:07:19;10.10;1.00
14252;DHT22;7210;51.502;10.722;2022-07-18T02:09:49;10.10;1.00
14252;DHT22;7210;51.502;10.722;2022-07-18T02:15:09;10.20;1.00
14252;DHT22;7210;51.502;10.722;2022-07-18T02:17:38;10.10;1.00
14252;DHT22;7210;51.502;10.722;2022-07-18T02:20:08;10.10;1.00
14252;DHT22;7210;51.502;10.722;2022-07-18T02:22:37;10.00;1.00
14252;DHT22;7210;51.502;10.722;2022-07-18T02:25:07;10.00;1.00
14252;DHT22;7210;51.502;10.722;2022-07-18T02:27:34;9.80;1.00
14252;DHT22;7210;51.502;10.722;2022-07-18T02:30:03;9.80;1.00
14252;DHT22;7210;51.502;10.722;2022-07-18T02:32:31;9.70;1.00
14252;DHT22;7210;51.502;10.722;2022-07-18T02:35:00;9.70;1.00
14252;DHT22;7210;51.502;10.722;2022-07-18T02:37:27;9.70;1.00
14252;DHT22;7210;51.502;10.722;2022-07-18T02:39:54;9.60;1.00
14252;DHT22;7210;51.502;10.722;2022-07-18T02:42:23;9.60;1.00
14252;DHT22;7210;51.502;10.722;2022-07-18T02:44:51;9.60;1.00
14252;DHT22;7210;51.502;10.722;2022-07-18T02:47:19;9.60;1.00
14252;DHT22;7210;51.502;10.722;2022-07-18T02:49:46;9.60;1.00
14252;DHT22;7210;51.502;10.722;2022-07-18T02:52:13;9.50;1.00
14252;DHT22;7210;51.502;10.722;2022-07-18T02:54:41;9.50;1.00
14252;DHT22;7210;51.502;10.722;2022-07-18T02:57:08;9.50;1.00
14252;DHT22;7210;51.502;10.722;2022-07-18T02:59:37;9.40;1.00
14252;DHT22;7210;51.502;10.722;2022-07-18T03:02:04;9.50;1.00
14252;DHT22;7210;51.502;10.722;2022-07-18T03:04:32;9.50;1.00
14252;DHT22;7210;51.502;10.722;2022-07-18T03:06:59;9.40;1.00
14252;DHT22;7210;51.502;10.722;2022-07-18T03:09:27;9.40;1.00
14252;DHT22;7210;51.502;10.722;2022-07-18T03:11:54;9.40;1.00
14252;DHT22;7210;51.502;10.722;2022-07-18T03:14:22;9.30;1.00
14252;DHT22;7210;51.502;10.722;2022-07-18T03:16:51;9.30;1.00
14252;DHT22;7210;51.502;10.722;2022-07-18T03:19:18;9.30;1.00
14252;DHT22;7210;51.502;10.722;2022-07-18T03:21:46;9.30;1.00
14252;DHT22;7210;51.502;10.722;2022-07-18T03:24:18;9.30;1.00
14252;DHT22;7210;51.502;10.722;2022-07-18T03:26:57;9.30;1.00
14252;DHT22;7210;51.502;10.722;2022-07-18T03:29:24;9.30;1.00
14252;DHT22;7210;51.502;10.722;2022-07-18T03:31:53;9.30;1.00
14252;DHT22;7210;51.502;10.722;2022-07-18T03:34:20;9.40;1.00
14252;DHT22;7210;51.502;10.722;2022-07-18T03:36:47;9.40;1.00
14252;DHT22;7210;51.502;10.722;2022-07-18T03:39:15;9.30;1.00
14252;DHT22;7210;51.502;10.722;2022-07-18T03:41:42;9.30;1.00
14252;DHT22;7210;51.502;10.722;2022-07-18T03:44:09;9.30;1.00
14252;DHT22;7210;51.502;10.722;2022-07-18T03:46:36;9.30;1.00
14252;DHT22;7210;51.502;10.722;2022-07-18T03:49:05;9.30;1.00
14252;DHT22;7210;51.502;10.722;2022-07-18T03:51:32;9.40;1.00
14252;DHT22;7210;51.502;10.722;2022-07-18T03:54:00;9.40;1.00
14252;DHT22;7210;51.502;10.722;2022-07-18T03:56:27;9.40;1.00
14252;DHT22;7210;51.502;10.722;2022-07-18T03:58:54;9.40;1.00
14252;DHT22;7210;51.502;10.722;2022-07-18T04:01:22;9.50;1.00
14252;DHT22;7210;51.502;10.722;2022-07-18T04:03:49;9.60;1.00
14252;DHT22;7210;51.502;10.722;2022-07-18T04:06:17;9.70;1.00
14252;DHT22;7210;51.502;10.722;2022-07-18T04:08:45;9.60;1.00
14252;DHT22;7210;51.502;10.722;2022-07-18T04:11:12;9.60;1.00
14252;DHT22;7210;51.502;10.722;2022-07-18T04:13:39;9.60;1.00
14252;DHT22;7210;51.502;10.722;2022-07-18T04:16:07;9.60;1.00
14252;DHT22;7210;51.502;10.722;2022-07-18T04:18:34;9.70;1.00
14252;DHT22;7210;51.502;10.722;2022-07-18T04:21:01;9.70;1.00
14252;DHT22;7210;51.502;10.722;2022-07-18T04:23:30;9.70;1.00
14252;DHT22;7210;51.502;10.722;2022-07-18T04:25:57;9.70;1.00
14252;DHT22;7210;51.502;10.722;2022-07-18T04:28:24;9.80;1.00
14252;DHT22;7210;51.502;10.722;2022-07-18T04:30:52;9.90;1.00
14252;DHT22;7210;51.502;10.722;2022-07-18T04:33:19;10.00;1.00
14252;DHT22;7210;51.502;10.722;2022-07-18T04:35:47;10.10;1.00
14252;DHT22;7210;51.502;10.722;2022-07-18T04:38:14;10.10;1.00
14252;DHT22;7210;51.502;10.722;2022-07-18T04:40:43;10.10;1.00
14252;DHT22;7210;51.502;10.722;2022-07-18T04:43:10;10.20;1.00
14252;DHT22;7210;51.502;10.722;2022-07-18T04:45:37;10.20;1.00
14252;DHT22;7210;51.502;10.722;2022-07-18T04:48:06;10.30;1.00
14252;DHT22;7210;51.502;10.722;2022-07-18T04:50:33;10.40;1.00
14252;DHT22;7210;51.502;10.722;2022-07-18T04:53:01;10.50;1.00
14252;DHT22;7210;51.502;10.722;2022-07-18T04:55:31;10.80;1.00
14252;DHT22;7210;51.502;10.722;2022-07-18T04:57:59;10.90;1.00
14252;DHT22;7210;51.502;10.722;2022-07-18T05:00:27;11.00;1.00
14252;DHT22;7210;51.502;10.722;2022-07-18T05:02:55;11.00;1.00
14252;DHT22;7210;51.502;10.722;2022-07-18T05:05:24;11.10;1.00
14252;DHT22;7210;51.502;10.722;2022-07-18T05:07:52;11.10;1.00
14252;DHT22;7210;51.502;10.722;2022-07-18T05:10:22;11.30;1.00
14252;DHT22;7210;51.502;10.722;2022-07-18T05:12:51;11.50;1.00
14252;DHT22;7210;51.502;10.722;2022-07-18T05:15:22;11.70;1.00
14252;DHT22;7210;51.502;10.722;2022-07-18T05:17:51;11.80;1.00
14252;DHT22;7210;51.502;10.722;2022-07-18T05:20:22;11.80;1.00
14252;DHT22;7210;51.502;10.722;2022-07-18T05:22:52;11.90;1.00
14252;DHT22;7210;51.502;10.722;2022-07-18T05:25:20;12.00;1.00
14252;DHT22;7210;51.502;10.722;2022-07-18T05:27:49;12.10;1.00
14252;DHT22;7210;51.502;10.722;2022-07-18T05:30:17;12.30;1.00
14252;DHT22;7210;51.502;10.722;2022-07-18T05:32:46;12.40;1.00
14252;DHT22;7210;51.502;10.722;2022-07-18T05:35:14;12.60;1.00
14252;DHT22;7210;51.502;10.722;2022-07-18T05:37:42;12.70;1.00
14252;DHT22;7210;51.502;10.722;2022-07-18T05:40:11;13.00;1.00
14252;DHT22;7210;51.502;10.722;2022-07-18T05:42:41;13.10;1.00
14252;DHT22;7210;51.502;10.722;2022-07-18T05:45:10;13.30;1.00
14252;DHT22;7210;51.502;10.722;2022-07-18T05:47:38;13.60;1.00
14252;DHT22;7210;51.502;10.722;2022-07-18T05:50:08;13.80;1.00
14252;DHT22;7210;51.502;10.722;2022-07-18T05:52:36;14.10;1.00
14252;DHT22;7210;51.502;10.722;2022-07-18T05:55:05;14.20;1.00
14252;DHT22;7210;51.502;10.722;2022-07-18T05:57:33;14.30;1.00
14252;DHT22;7210;51.502;10.722;2022-07-18T06:00:02;14.40;1.00
14252;DHT22;7210;51.502;10.722;2022-07-18T06:02:34;14.50;1.00
14252;DHT22;7210;51.502;10.722;2022-07-18T06:05:02;14.70;1.00
14252;DHT22;7210;51.502;10.722;2022-07-18T06:07:31;14.90;1.00
14252;DHT22;7210;51.502;10.722;2022-07-18T06:10:01;15.00;1.00
14252;DHT22;7210;51.502;10.722;2022-07-18T06:12:29;15.10;1.00
14252;DHT22;7210;51.502;10.722;2022-07-18T06:15:01;15.20;1.00
14252;DHT22;7210;51.502;10.722;2022-07-18T06:17:31;15.30;1.00
14252;DHT22;7210;51.502;10.722;2022-07-18T06:19:59;15.30;1.00
14252;DHT22;7210;51.502;10.722;2022-07-18T06:22:26;15.40;1.00
14252;DHT22;7210;51.502;10.722;2022-07-18T06:24:55;15.60;1.00
14252;DHT22;7210;51.502;10.722;2022-07-18T06:27:22;15.70;1.00
14252;DHT22;7210;51.502;10.722;2022-07-18T06:29:49;15.90;1.00
14252;DHT22;7210;51.502;10.722;2022-07-18T06:32:16;16.10;1.00
14252;DHT22;7210;51.502;10.722;2022-07-18T06:34:43;16.20;1.00
14252;DHT22;7210;51.502;10.722;2022-07-18T06:37:11;16.50;1.00
14252;DHT22;7210;51.502;10.722;2022-07-18T06:39:38;16.60;1.00
14252;DHT22;7210;51.502;10.722;2022-07-18T06:42:07;16.70;1.00
14252;DHT22;7210;51.502;10.722;2022-07-18T06:44:34;16.80;1.00
14252;DHT22;7210;51.502;10.722;2022-07-18T06:47:01;17.00;1.00
14252;DHT22;7210;51.502;10.722;2022-07-18T06:49:29;17.10;1.00
14252;DHT22;7210;51.502;10.722;2022-07-18T06:51:56;17.30;1.00
14252;DHT22;7210;51.502;10.722;2022-07-18T06:54:23;17.40;1.00
14252;DHT22;7210;51.502;10.722;2022-07-18T06:56:53;17.50;1.00
14252;DHT22;7210;51.502;10.722;2022-07-18T06:59:23;17.60;1.00
14252;DHT22;7210;51.502;10.722;2022-07-18T07:01:50;17.70;1.00
14252;DHT22;7210;51.502;10.722;2022-07-18T07:04:17;17.80;1.00
14252;DHT22;7210;51.502;10.722;2022-07-18T07:06:44;18.00;1.00
14252;DHT22;7210;51.502;10.722;2022-07-18T07:09:12;18.10;1.00
14252;DHT22;7210;51.502;10.722;2022-07-18T07:11:39;18.10;1.00
14252;DHT22;7210;51.502;10.722;2022-07-18T07:14:06;18.20;1.00
14252;DHT22;7210;51.502;10.722;2022-07-18T07:16:35;18.30;1.00
14252;DHT22;7210;51.502;10.722;2022-07-18T07:19:02;18.40;1.00
14252;DHT22;7210;51.502;10.722;2022-07-18T07:21:30;18.50;1.00
14252;DHT22;7210;51.502;10.722;2022-07-18T07:23:57;18.60;1.00
14252;DHT22;7210;51.502;10.722;2022-07-18T07:26:24;18.80;1.00
14252;DHT22;7210;51.502;10.722;2022-07-18T07:28:52;18.90;1.00
14252;DHT22;7210;51.502;10.722;2022-07-18T07:31:19;19.00;1.00
14252;DHT22;7210;51.502;10.722;2022-07-18T07:33:50;19.10;1.00
14252;DHT22;7210;51.502;10.722;2022-07-18T07:36:17;19.30;1.00
14252;DHT22;7210;51.502;10.722;2022-07-18T07:38:45;19.30;1.00
14252;DHT22;7210;51.502;10.722;2022-07-18T07:41:12;19.50;1.00
14252;DHT22;7210;51.502;10.722;2022-07-18T07:43:40;19.60;1.00
14252;DHT22;7210;51.502;10.722;2022-07-18T07:46:07;19.70;1.00
14252;DHT22;7210;51.502;10.722;2022-07-18T07:48:36;19.80;1.00
14252;DHT22;7210;51.502;10.722;2022-07-18T07:51:05;20.00;1.00
14252;DHT22;7210;51.502;10.722;2022-07-18T07:53:32;20.10;1.00
14252;DHT22;7210;51.502;10.722;2022-07-18T07:56:00;20.30;1.00
14252;DHT22;7210;51.502;10.722;2022-07-18T07:58:27;20.40;1.00
14252;DHT22;7210;51.502;10.722;2022-07-18T08:00:54;20.40;1.00
14252;DHT22;7210;51.502;10.722;2022-07-18T08:03:21;20.50;1.00
14252;DHT22;7210;51.502;10.722;2022-07-18T08:05:50;20.70;1.00
14252;DHT22;7210;51.502;10.722;2022-07-18T08:08:18;20.90;1.00
14252;DHT22;7210;51.502;10.722;2022-07-18T08:10:46;21.10;1.00
14252;DHT22;7210;51.502;10.722;2022-07-18T08:13:14;21.20;1.00
14252;DHT22;7210;51.502;10.722;2022-07-18T08:15:41;21.20;1.00
14252;DHT22;7210;51.502;10.722;2022-07-18T08:18:09;21.30;1.00
14252;DHT22;7210;51.502;10.722;2022-07-18T08:20:36;21.30;1.00
14252;DHT22;7210;51.502;10.722;2022-07-18T08:23:05;21.60;1.00
14252;DHT22;7210;51.502;10.722;2022-07-18T08:25:37;21.80;4.90
14252;DHT22;7210;51.502;10.722;2022-07-18T08:28:06;22.10;6.60
14252;DHT22;7210;51.502;10.722;2022-07-18T08:30:35;22.40;10.40
14252;DHT22;7210;51.502;10.722;2022-07-18T08:33:04;22.60;12.50
14252;DHT22;7210;51.502;10.722;2022-07-18T08:35:33;22.90;16.80
14252;DHT22;7210;51.502;10.722;2022-07-18T08:38:01;22.90;16.00
14252;DHT22;7210;51.502;10.722;2022-07-18T08:40:30;23.00;17.20
14252;DHT22;7210;51.502;10.722;2022-07-18T08:42:59;23.20;18.70
14252;DHT22;7210;51.502;10.722;2022-07-18T08:45:26;23.20;19.90
14252;DHT22;7210;51.502;10.722;2022-07-18T08:47:53;23.30;22.00
14252;DHT22;7210;51.502;10.722;2022-07-18T08:50:37;23.40;22.40
14252;DHT22;7210;51.502;10.722;2022-07-18T08:53:04;23.50;23.60
14252;DHT22;7210;51.502;10.722;2022-07-18T08:55:32;23.70;26.80
14252;DHT22;7210;51.502;10.722;2022-07-18T08:58:02;23.80;30.10
14252;DHT22;7210;51.502;10.722;2022-07-18T09:00:34;24.00;30.30
14252;DHT22;7210;51.502;10.722;2022-07-18T09:03:03;24.20;34.20
14252;DHT22;7210;51.502;10.722;2022-07-18T09:05:32;24.20;35.90
14252;DHT22;7210;51.502;10.722;2022-07-18T09:08:14;24.40;38.40
14252;DHT22;7210;51.502;10.722;2022-07-18T09:10:48;24.50;37.80
14252;DHT22;7210;51.502;10.722;2022-07-18T09:13:23;24.60;37.20
14252;DHT22;7210;51.502;10.722;2022-07-18T09:15:57;24.60;41.40
14252;DHT22;7210;51.502;10.722;2022-07-18T09:18:27;24.70;46.70
14252;DHT22;7210;51.502;10.722;2022-07-18T09:20:58;24.90;43.90
14252;DHT22;7210;51.502;10.722;2022-07-18T09:23:28;24.90;47.20
14252;DHT22;7210;51.502;10.722;2022-07-18T09:25:57;24.90;47.90
14252;DHT22;7210;51.502;10.722;2022-07-18T09:28:27;25.10;50.60
14252;DHT22;7210;51.502;10.722;2022-07-18T09:30:55;25.20;54.00
14252;DHT22;7210;51.502;10.722;2022-07-18T09:33:23;25.20;55.10
14252;DHT22;7210;51.502;10.722;2022-07-18T09:35:52;25.30;55.90
14252;DHT22;7210;51.502;10.722;2022-07-18T09:38:21;25.40;58.20
14252;DHT22;7210;51.502;10.722;2022-07-18T09:40:52;25.50;57.10
14252;DHT22;7210;51.502;10.722;2022-07-18T09:43:24;25.60;60.30
14252;DHT22;7210;51.502;10.722;2022-07-18T09:45:55;25.80;63.50
14252;DHT22;7210;51.502;10.722;2022-07-18T09:48:24;25.90;64.30
14252;DHT22;7210;51.502;10.722;2022-07-18T09:50:53;26.00;71.20
14252;DHT22;7210;51.502;10.722;2022-07-18T09:53:23;26.10;70.10
14252;DHT22;7210;51.502;10.722;2022-07-18T09:55:53;26.30;69.30
14252;DHT22;7210;51.502;10.722;2022-07-18T09:58:23;26.40;74.60
14252;DHT22;7210;51.502;10.722;2022-07-18T10:00:53;26.50;76.70
14252;DHT22;7210;51.502;10.722;2022-07-18T10:03:23;26.60;80.40
14252;DHT22;7210;51.502;10.722;2022-07-18T10:05:54;26.80;85.10
14252;DHT22;7210;51.502;10.722;2022-07-18T10:08:24;27.00;86.70
14252;DHT22;7210;51.502;10.722;2022-07-18T10:10:55;27.20;88.60
14252;DHT22;7210;51.502;10.722;2022-07-18T10:13:25;27.30;93.30
14252;DHT22;7210;51.502;10.722;2022-07-18T10:15:56;27.40;95.70
14252;DHT22;7210;51.502;10.722;2022-07-18T10:18:25;27.40;93.40
14252;DHT22;7210;51.502;10.722;2022-07-18T10:20:57;27.30;96.40
14252;DHT22;7210;51.502;10.722;2022-07-18T10:23:33;27.40;95.80
14252;DHT22;7210;51.502;10.722;2022-07-18T10:26:12;27.50;97.90
14252;DHT22;7210;51.502;10.722;2022-07-18T10:29:09;27.50;98.30
14252;DHT22;7210;51.502;10.722;2022-07-18T10:32:00;27.60;99.90
14252;DHT22;7210;51.502;10.722;2022-07-18T10:34:33;27.90;99.90
14252;DHT22;7210;51.502;10.722;2022-07-18T10:37:09;28.00;99.90
14252;DHT22;7210;51.502;10.722;2022-07-18T10:39:39;28.10;99.90
14252;DHT22;7210;51.502;10.722;2022-07-18T10:42:19;28.20;99.90
14252;DHT22;7210;51.502;10.722;2022-07-18T10:44:50;28.40;99.90
14252;DHT22;7210;51.502;10.722;2022-07-18T10:47:20;28.40;99.90
14252;DHT22;7210;51.502;10.722;2022-07-18T10:50:05;28.60;99.90
14252;DHT22;7210;51.502;10.722;2022-07-18T10:52:56;28.80;99.90
14252;DHT22;7210;51.502;10.722;2022-07-18T10:55:30;28.80;99.90
14252;DHT22;7210;51.502;10.722;2022-07-18T10:58:18;29.00;99.90
14252;DHT22;7210;51.502;10.722;2022-07-18T11:00:52;29.20;99.90
14252;DHT22;7210;51.502;10.722;2022-07-18T11:03:28;29.40;99.90
14252;DHT22;7210;51.502;10.722;2022-07-18T11:05:57;29.40;99.90
14252;DHT22;7210;51.502;10.722;2022-07-18T11:08:25;29.50;99.90
14252;DHT22;7210;51.502;10.722;2022-07-18T11:13:49;30.10;99.90
14252;DHT22;7210;51.502;10.722;2022-07-18T11:16:18;30.20;99.90
14252;DHT22;7210;51.502;10.722;2022-07-18T11:19:18;30.20;99.90
14252;DHT22;7210;51.502;10.722;2022-07-18T11:21:53;30.40;99.90
14252;DHT22;7210;51.502;10.722;2022-07-18T11:24:24;30.40;99.90
14252;DHT22;7210;51.502;10.722;2022-07-18T11:26:53;30.80;99.90
14252;DHT22;7210;51.502;10.722;2022-07-18T11:29:21;30.80;99.90
14252;DHT22;7210;51.502;10.722;2022-07-18T11:31:50;30.80;99.90
14252;DHT22;7210;51.502;10.722;2022-07-18T11:34:21;30.90;99.90
14252;DHT22;7210;51.502;10.722;2022-07-18T11:36:49;30.90;99.90
14252;DHT22;7210;51.502;10.722;2022-07-18T11:39:28;30.90;99.90
14252;DHT22;7210;51.502;10.722;2022-07-18T11:41:56;31.10;99.90
14252;DHT22;7210;51.502;10.722;2022-07-18T11:44:24;31.10;99.90
14252;DHT22;7210;51.502;10.722;2022-07-18T11:47:06;31.10;99.90
14252;DHT22;7210;51.502;10.722;2022-07-18T11:49:36;31.30;99.90
14252;DHT22;7210;51.502;10.722;2022-07-18T11:52:05;31.50;99.90
14252;DHT22;7210;51.502;10.722;2022-07-18T11:54:33;31.60;99.90
14252;DHT22;7210;51.502;10.722;2022-07-18T11:57:00;31.50;99.90
14252;DHT22;7210;51.502;10.722;2022-07-18T11:59:39;31.60;99.90
14252;DHT22;7210;51.502;10.722;2022-07-18T12:02:09;31.70;99.90
14252;DHT22;7210;51.502;10.722;2022-07-18T12:04:39;31.70;99.90
14252;DHT22;7210;51.502;10.722;2022-07-18T12:07:16;31.70;99.90
14252;DHT22;7210;51.502;10.722;2022-07-18T12:09:45;31.80;99.90
14252;DHT22;7210;51.502;10.722;2022-07-18T12:12:15;31.80;99.90
14252;DHT22;7210;51.502;10.722;2022-07-18T12:14:52;31.80;99.90
14252;DHT22;7210;51.502;10.722;2022-07-18T12:17:20;31.70;99.90
14252;DHT22;7210;51.502;10.722;2022-07-18T12:19:49;31.60;99.90
14252;DHT22;7210;51.502;10.722;2022-07-18T12:22:16;31.40;99.90
14252;DHT22;7210;51.502;10.722;2022-07-18T12:24:50;31.30;99.90
14252;DHT22;7210;51.502;10.722;2022-07-18T12:27:21;31.60;99.90
14252;DHT22;7210;51.502;10.722;2022-07-18T12:29:57;31.80;99.90
14252;DHT22;7210;51.502;10.722;2022-07-18T12:32:44;32.00;99.90
14252;DHT22;7210;51.502;10.722;2022-07-18T12:35:17;32.30;99.90
14252;DHT22;7210;51.502;10.722;2022-07-18T12:37:54;32.60;99.90
14252;DHT22;7210;51.502;10.722;2022-07-18T12:40:26;32.70;99.90
14252;DHT22;7210;51.502;10.722;2022-07-18T12:43:05;32.90;99.90
14252;DHT22;7210;51.502;10.722;2022-07-18T12:45:34;33.20;99.90
14252;DHT22;7210;51.502;10.722;2022-07-18T12:48:01;33.30;99.90
14252;DHT22;7210;51.502;10.722;2022-07-18T12:50:31;33.40;99.90
14252;DHT22;7210;51.502;10.722;2022-07-18T12:52:58;33.30;99.90
14252;DHT22;7210;51.502;10.722;2022-07-18T12:55:25;33.40;99.90
14252;DHT22;7210;51.502;10.722;2022-07-18T12:57:53;33.50;99.90
14252;DHT22;7210;51.502;10.722;2022-07-18T13:00:20;33.40;99.90
14252;DHT22;7210;51.502;10.722;2022-07-18T13:02:47;33.50;99.90
14252;DHT22;7210;51.502;10.722;2022-07-18T13:05:15;33.50;99.90
14252;DHT22;7210;51.502;10.722;2022-07-18T13:07:43;33.40;99.90
14252;DHT22;7210;51.502;10.722;2022-07-18T13:10:11;33.30;99.90
14252;DHT22;7210;51.502;10.722;2022-07-18T13:12:38;33.30;99.90
14252;DHT22;7210;51.502;10.722;2022-07-18T13:15:06;33.20;99.90
14252;DHT22;7210;51.502;10.722;2022-07-18T13:17:34;33.10;99.90
14252;DHT22;7210;51.502;10.722;2022-07-18T13:20:02;33.30;99.90
14252;DHT22;7210;51.502;10.722;2022-07-18T13:22:30;33.30;99.90
14252;DHT22;7210;51.502;10.722;2022-07-18T13:25:06;33.20;99.90
14252;DHT22;7210;51.502;10.722;2022-07-18T13:27:35;33.10;99.90
14252;DHT22;7210;51.502;10.722;2022-07-18T13:30:05;33.00;99.90
14252;DHT22;7210;51.502;10.722;2022-07-18T13:32:35;33.00;99.90
14252;DHT22;7210;51.502;10.722;2022-07-18T13:35:03;32.80;99.90
14252;DHT22;7210;51.502;10.722;2022-07-18T13:37:31;32.60;99.90
14252;DHT22;7210;51.502;10.722;2022-07-18T13:39:59;32.60;99.90
14252;DHT22;7210;51.502;10.722;2022-07-18T13:42:27;32.50;99.90
14252;DHT22;7210;51.502;10.722;2022-07-18T13:44:54;32.50;99.90
14252;DHT22;7210;51.502;10.722;2022-07-18T13:47:22;32.60;99.90
14252;DHT22;7210;51.502;10.722;2022-07-18T13:49:49;33.00;99.90
14252;DHT22;7210;51.502;10.722;2022-07-18T13:52:17;33.20;99.90
14252;DHT22;7210;51.502;10.722;2022-07-18T13:54:44;33.30;99.90
14252;DHT22;7210;51.502;10.722;2022-07-18T13:57:13;33.30;99.90
14252;DHT22;7210;51.502;10.722;2022-07-18T13:59:42;33.00;99.90
14252;DHT22;7210;51.502;10.722;2022-07-18T14:02:09;33.10;99.90
14252;DHT22;7210;51.502;10.722;2022-07-18T14:04:36;33.10;99.90
14252;DHT22;7210;51.502;10.722;2022-07-18T14:07:03;33.20;99.90
14252;DHT22;7210;51.502;10.722;2022-07-18T14:09:32;33.10;99.90
14252;DHT22;7210;51.502;10.722;2022-07-18T14:11:59;33.00;99.90
14252;DHT22;7210;51.502;10.722;2022-07-18T14:14:27;33.00;99.90
14252;DHT22;7210;51.502;10.722;2022-07-18T14:16:56;33.00;99.90
14252;DHT22;7210;51.502;10.722;2022-07-18T14:19:24;33.00;99.90
14252;DHT22;7210;51.502;10.722;2022-07-18T14:21:52;33.00;99.90
14252;DHT22;7210;51.502;10.722;2022-07-18T14:24:21;32.90;99.90
14252;DHT22;7210;51.502;10.722;2022-07-18T14:26:48;33.00;99.90
14252;DHT22;7210;51.502;10.722;2022-07-18T14:29:15;32.90;99.90
14252;DHT22;7210;51.502;10.722;2022-07-18T14:31:43;32.90;99.90
14252;DHT22;7210;51.502;10.722;2022-07-18T14:34:11;33.10;99.90
14252;DHT22;7210;51.502;10.722;2022-07-18T14:36:39;33.10;99.90
14252;DHT22;7210;51.502;10.722;2022-07-18T14:39:06;33.10;99.90
14252;DHT22;7210;51.502;10.722;2022-07-18T14:41:33;33.10;99.90
14252;DHT22;7210;51.502;10.722;2022-07-18T14:44:00;33.20;99.90
14252;DHT22;7210;51.502;10.722;2022-07-18T14:46:28;33.40;99.90
14252;DHT22;7210;51.502;10.722;2022-07-18T14:48:56;33.20;99.90
14252;DHT22;7210;51.502;10.722;2022-07-18T14:51:25;33.20;99.90
14252;DHT22;7210;51.502;10.722;2022-07-18T14:53:52;33.10;99.90
14252;DHT22;7210;51.502;10.722;2022-07-18T14:56:19;33.20;99.90
14252;DHT22;7210;51.502;10.722;2022-07-18T14:58:46;33.30;99.90
14252;DHT22;7210;51.502;10.722;2022-07-18T15:01:14;33.40;99.90
14252;DHT22;7210;51.502;10.722;2022-07-18T15:03:42;33.60;99.90
14252;DHT22;7210;51.502;10.722;2022-07-18T15:06:10;33.60;99.90
14252;DHT22;7210;51.502;10.722;2022-07-18T15:08:38;33.50;99.90
14252;DHT22;7210;51.502;10.722;2022-07-18T15:11:05;33.60;99.90
14252;DHT22;7210;51.502;10.722;2022-07-18T15:13:33;33.60;99.90
14252;DHT22;7210;51.502;10.722;2022-07-18T15:16:00;33.50;99.90
14252;DHT22;7210;51.502;10.722;2022-07-18T15:18:27;33.60;99.90
14252;DHT22;7210;51.502;10.722;2022-07-18T15:20:54;33.60;99.90
14252;DHT22;7210;51.502;10.722;2022-07-18T15:23:22;33.80;99.90
14252;DHT22;7210;51.502;10.722;2022-07-18T15:25:51;33.80;99.90
14252;DHT22;7210;51.502;10.722;2022-07-18T15:28:19;33.70;99.90
14252;DHT22;7210;51.502;10.722;2022-07-18T15:30:48;34.00;99.90
14252;DHT22;7210;51.502;10.722;2022-07-18T15:33:16;34.20;99.90
14252;DHT22;7210;51.502;10.722;2022-07-18T15:35:44;34.40;99.90
14252;DHT22;7210;51.502;10.722;2022-07-18T15:38:11;34.70;99.90
14252;DHT22;7210;51.502;10.722;2022-07-18T15:40:38;34.80;99.90
14252;DHT22;7210;51.502;10.722;2022-07-18T15:43:07;34.80;99.90
14252;DHT22;7210;51.502;10.722;2022-07-18T15:45:34;34.70;99.90
14252;DHT22;7210;51.502;10.722;2022-07-18T15:48:02;34.70;99.90
14252;DHT22;7210;51.502;10.722;2022-07-18T15:50:30;34.50;99.90
14252;DHT22;7210;51.502;10.722;2022-07-18T15:52:57;34.40;99.90
14252;DHT22;7210;51.502;10.722;2022-07-18T15:55:25;34.50;99.90
14252;DHT22;7210;51.502;10.722;2022-07-18T15:57:52;34.50;99.90